Time;durP1;ratioP1;P1;durP2;ratioP2;P2;SDS_P1;SDS_P2;PMS_P1;PMS_P2;Temp;Humidity;BMP_temperature;BMP_pressure;BME280_temperature;BME280_humidity;BME280_pressure;Samples;Min_cycle;Max_cycle;Signal;HPM_P1;HPM_P2
2021/04/02 00:04:19;;;;;;;8.43;5.27;;;;;;;4.27;100.00;100648.08;10719965;82;98464;-73
2021/04/02 00:19:23;;;;;;;9.18;6.22;;;;;;;4.46;100.00;100647.42;10730524;81;98337;-74
2021/04/02 00:34:27;;;;;;;13.32;6.78;;;;;;;4.50;100.00;100655.89;10665500;82;98459;-73
2021/04/02 00:49:31;;;;;;;9.13;5.92;;;;;;;4.61;100.00;100659.17;10733028;81;98564;-74
2021/04/02 01:04:36;;;;;;;7.62;3.40;;;;;;;4.47;100.00;100665.98;10536115;81;98377;-74
2021/04/02 01:19:45;;;;;;;10.10;6.20;;;;;;;3.94;100.00;100671.91;10626341;81;98538;-73
2021/04/02 01:34:52;;;;;;;15.00;6.45;;;;;;;3.68;100.00;100653.84;10275619;84;98541;-73
2021/04/02 01:49:58;;;;;;;10.17;5.37;;;;;;;3.47;100.00;100661.85;10048596;85;98531;-74
2021/04/02 02:05:07;;;;;;;8.25;3.50;;;;;;;3.61;100.00;100650.73;10223692;84;98510;-74
2021/04/02 02:20:14;;;;;;;7.70;3.87;;;;;;;3.61;100.00;100625.26;10353000;83;98370;-74
2021/04/02 02:35:20;;;;;;;41.13;16.90;;;;;;;3.27;100.00;100620.55;10604084;82;98496;-73
2021/04/02 02:50:27;;;;;;;21.48;10.18;;;;;;;3.15;100.00;100619.43;10530971;81;98838;-73
2021/04/02 03:05:33;;;;;;;7.67;4.20;;;;;;;3.00;100.00;100611.99;10519276;82;98783;-73
2021/04/02 03:20:40;;;;;;;6.78;3.35;;;;;;;3.12;100.00;100613.12;10389781;82;98552;-73
2021/04/02 03:35:46;;;;;;;5.87;3.40;;;;;;;3.16;100.00;100615.45;10545602;83;97548;-71
2021/04/02 03:50:55;;;;;;;9.08;4.37;;;;;;;2.94;100.00;100596.75;10521155;83;98530;-71
2021/04/02 04:06:01;;;;;;;10.63;4.37;;;;;;;2.77;100.00;100604.08;10566903;81;97587;-71
2021/04/02 04:21:08;;;;;;;13.48;4.25;;;;;;;2.58;100.00;100605.47;10516463;83;98688;-71
2021/04/02 04:36:14;;;;;;;29.90;16.93;;;;;;;2.64;100.00;100622.84;10545939;83;98516;-71
2021/04/02 04:51:22;;;;;;;20.50;9.57;;;;;;;2.75;100.00;100632.66;10618599;83;98754;-72
2021/04/02 05:06:28;;;;;;;33.67;15.10;;;;;;;2.94;100.00;100625.25;10620405;82;98604;-69
2021/04/02 05:21:32;;;;;;;13.13;8.13;;;;;;;3.08;100.00;100623.27;10667871;82;98818;-70
2021/04/02 05:36:36;;;;;;;43.68;17.92;;;;;;;3.31;100.00;100639.77;10432514;83;97673;-69
2021/04/02 05:51:42;;;;;;;49.05;18.45;;;;;;;3.59;100.00;100637.46;10615071;81;98827;-68
2021/04/02 06:06:47;;;;;;;10.05;6.42;;;;;;;3.89;100.00;100624.59;10676155;81;98920;-68
2021/04/02 06:21:55;;;;;;;24.20;8.85;;;;;;;3.89;100.00;100618.09;10435324;82;98873;-69
2021/04/02 06:37:05;;;;;;;9.85;6.90;;;;;;;4.41;100.00;100611.77;10518887;83;98640;-69
2021/04/02 06:52:09;;;;;;;8.18;5.95;;;;;;;4.10;100.00;100607.46;10576447;83;98527;-70
2021/04/02 07:07:14;;;;;;;29.72;11.85;;;;;;;5.11;100.00;100607.74;10596427;83;98300;-71
2021/04/02 07:22:19;;;;;;;42.00;17.42;;;;;;;5.42;95.46;100618.41;10557080;82;98877;-68
2021/04/02 07:37:24;;;;;;;18.92;10.35;;;;;;;7.24;91.97;100608.92;10563120;82;98525;-70
2021/04/02 07:52:33;;;;;;;61.10;34.53;;;;;;;7.55;89.94;100609.39;10693183;80;98501;-71
2021/04/02 08:07:42;;;;;;;12.37;7.95;;;;;;;7.73;83.46;100604.66;10776949;81;98693;-74
2021/04/02 08:22:49;;;;;;;65.10;42.13;;;;;;;8.30;77.82;100599.23;10615702;82;98459;-74
2021/04/02 08:38:00;;;;;;;342.07;149.37;;;;;;;9.04;76.87;100592.91;10660563;81;98578;-73
2021/04/02 08:53:09;;;;;;;20.30;9.53;;;;;;;10.03;76.79;100574.23;10672240;81;98977;-71
2021/04/02 09:08:14;;;;;;;15.07;10.57;;;;;;;9.53;70.57;100573.40;10438642;83;98473;-73
2021/04/02 09:23:19;;;;;;;11.83;8.25;;;;;;;10.14;68.24;100550.58;10575460;82;98662;-73
2021/04/02 09:38:26;;;;;;;24.35;12.10;;;;;;;10.52;63.55;100531.81;10655051;82;98803;-73
2021/04/02 09:53:32;;;;;;;12.10;6.03;;;;;;;10.36;57.83;100517.39;10891941;79;99098;-75
2021/04/02 10:08:37;;;;;;;10.15;5.95;;;;;;;11.95;55.97;100487.06;10879638;79;99074;-75
2021/04/02 10:23:41;;;;;;;11.70;4.17;;;;;;;11.76;53.89;100467.67;10859505;81;98674;-71
2021/04/02 10:38:45;;;;;;;5.90;3.87;;;;;;;12.30;50.08;100456.72;10902224;81;98599;-71
2021/04/02 10:53:50;;;;;;;6.03;4.10;;;;;;;13.83;48.97;100436.04;10926987;79;98445;-71
2021/04/02 11:08:54;;;;;;;23.32;9.50;;;;;;;13.10;49.92;100421.50;10886573;81;98424;-73
2021/04/02 11:23:58;;;;;;;12.70;6.10;;;;;;;12.99;49.91;100409.87;10838951;81;98694;-73
2021/04/02 11:39:04;;;;;;;5.17;3.17;;;;;;;12.64;51.31;100410.12;10897355;81;98784;-73
2021/04/02 11:54:08;;;;;;;6.20;3.20;;;;;;;12.44;51.40;100381.25;10850723;81;99130;-73
2021/04/02 12:09:12;;;;;;;9.73;5.97;;;;;;;13.72;49.35;100377.80;10655049;82;98554;-74
2021/04/02 12:24:17;;;;;;;34.98;18.67;;;;;;;13.17;52.04;100364.28;10418435;84;98589;-74
2021/04/02 12:39:22;;;;;;;14.90;11.05;;;;;;;11.69;53.54;100354.05;10387670;83;98848;-74
2021/04/02 12:54:26;;;;;;;9.35;5.05;;;;;;;12.34;54.43;100325.25;10618145;80;98889;-74
2021/04/02 13:09:30;;;;;;;9.80;4.72;;;;;;;11.35;56.24;100306.74;10633462;82;99006;-73
2021/04/02 13:24:35;;;;;;;118.08;55.12;;;;;;;11.48;57.00;100287.58;10632648;81;98679;-74
2021/04/02 13:39:39;;;;;;;46.18;23.00;;;;;;;12.70;55.17;100263.97;10475223;82;99055;-72
2021/04/02 13:54:44;;;;;;;42.20;24.40;;;;;;;12.63;53.95;100254.53;10587318;81;98912;-72
2021/04/02 14:09:49;;;;;;;12.03;6.90;;;;;;;12.94;54.66;100239.16;10746892;80;98844;-73
2021/04/02 14:24:55;;;;;;;62.90;30.67;;;;;;;12.67;52.13;100224.77;10662028;81;98736;-76
2021/04/02 14:40:00;;;;;;;34.95;18.52;;;;;;;12.37;49.95;100199.99;10632809;81;98795;-76
2021/04/02 14:55:08;;;;;;;72.65;40.38;;;;;;;13.67;46.98;100187.14;10502480;83;99000;-76
2021/04/02 15:10:15;;;;;;;64.72;29.92;;;;;;;12.55;48.46;100189.95;10432029;84;98833;-76
2021/04/02 15:25:21;;;;;;;15.50;8.53;;;;;;;11.54;49.67;100180.27;10513129;83;98937;-73
2021/04/02 15:40:29;;;;;;;68.10;36.35;;;;;;;11.39;49.81;100172.85;10525237;83;98811;-72
2021/04/02 15:55:33;;;;;;;21.60;11.07;;;;;;;11.24;50.31;100160.64;10537221;83;98962;-73
2021/04/02 16:10:42;;;;;;;23.77;10.32;;;;;;;11.14;50.00;100152.81;10529217;80;98927;-73
2021/04/02 16:25:45;;;;;;;30.20;13.88;;;;;;;10.91;50.13;100143.10;10687460;81;98968;-75
2021/04/02 16:40:49;;;;;;;80.77;31.23;;;;;;;10.48;51.55;100138.66;10847876;79;98918;-75
2021/04/02 16:55:54;;;;;;;980.83;437.38;;;;;;;10.49;52.17;100133.77;10768456;79;98878;-74
2021/04/02 17:10:58;;;;;;;230.70;102.92;;;;;;;10.27;52.98;100130.90;10672258;81;99766;-74
2021/04/02 17:26:03;;;;;;;219.53;91.17;;;;;;;10.06;53.82;100137.56;10718775;81;99143;-73
2021/04/02 17:41:07;;;;;;;185.82;76.90;;;;;;;9.88;54.67;100141.31;10741716;81;98886;-73
2021/04/02 17:56:12;;;;;;;187.75;80.72;;;;;;;9.63;55.45;100132.14;10845214;80;98766;-74
2021/04/02 18:11:16;;;;;;;158.00;59.60;;;;;;;9.31;56.67;100155.37;10811967;80;99035;-74
2021/04/02 18:26:21;;;;;;;253.95;97.95;;;;;;;8.90;58.12;100175.38;10806659;80;98826;-73
2021/04/02 18:41:25;;;;;;;167.82;63.85;;;;;;;8.70;59.72;100177.00;10776555;80;98683;-73
2021/04/02 18:56:30;;;;;;;183.70;61.13;;;;;;;8.56;60.62;100172.91;10800683;80;98650;-74
2021/04/02 19:11:36;;;;;;;158.65;54.65;;;;;;;8.39;61.86;100175.55;10853625;79;99180;-73
2021/04/02 19:26:40;;;;;;;122.90;48.05;;;;;;;8.31;62.67;100170.94;10851382;80;98760;-72
2021/04/02 19:41:45;;;;;;;88.80;35.10;;;;;;;7.91;65.02;100184.08;10793075;80;98743;-73
2021/04/02 19:56:49;;;;;;;76.73;28.00;;;;;;;7.50;66.50;100177.69;10796774;80;98547;-74
2021/04/02 20:11:53;;;;;;;128.20;44.73;;;;;;;6.91;71.22;100165.13;10824646;80;98614;-74
2021/04/02 20:26:58;;;;;;;117.27;40.70;;;;;;;6.78;70.38;100168.30;10796176;80;98789;-73
2021/04/02 20:42:07;;;;;;;113.95;43.70;;;;;;;6.83;71.30;100163.58;10902648;80;98685;-74
2021/04/02 20:57:11;;;;;;;155.27;59.03;;;;;;;6.89;73.35;100163.58;10903789;80;98946;-73
2021/04/02 21:12:16;;;;;;;50.55;22.65;;;;;;;6.87;74.03;100152.45;10905421;80;98559;-73
2021/04/02 21:27:20;;;;;;;44.42;16.10;;;;;;;6.89;73.38;100160.97;10842627;80;98711;-74
2021/04/02 21:42:24;;;;;;;34.58;14.85;;;;;;;6.82;74.86;100167.12;10811993;81;98590;-73
2021/04/02 21:57:29;;;;;;;33.77;14.73;;;;;;;6.78;76.76;100184.79;10810684;81;98558;-74
2021/04/02 22:12:33;;;;;;;30.37;12.82;;;;;;;6.71;79.50;100174.92;10812749;81;98667;-73
2021/04/02 22:27:38;;;;;;;64.90;23.75;;;;;;;6.66;83.27;100181.31;10837820;80;98543;-73
2021/04/02 22:42:45;;;;;;;21.20;10.20;;;;;;;6.50;85.54;100185.96;10654484;82;98526;-74
2021/04/02 22:57:51;;;;;;;30.12;13.72;;;;;;;6.32;87.56;100188.96;10717173;81;98514;-73
2021/04/02 23:12:57;;;;;;;56.65;28.45;;;;;;;6.19;89.51;100184.73;10781029;81;98537;-74
2021/04/02 23:28:02;;;;;;;22.22;12.95;;;;;;;6.15;93.90;100165.90;10762647;80;99036;-73
2021/04/02 23:43:10;;;;;;;36.13;16.57;;;;;;;6.11;95.64;100180.05;10837304;81;99032;-73
2021/04/02 23:58:14;;;;;;;25.83;12.27;;;;;;;5.86;100.00;100181.77;10832118;81;98491;-73
